Prior Lake, MN (55372)

9:29 AM CDT on April 27, 2017 (GMT -0500)
Fairlawn Shores | | Change Station

Elev 928 ft 44.73 °N, 93.41 °W | Updated 22 seconds ago

Snow
Snow
33.4 °F
Feels Like 33 °F
N
0.0
Wind Variable Wind from NE

Today
High -- | Low -- °F
--% Chance of Precip.
Yesterday
High -- | Low -- °F
Precip. -- in
Pressure 29.56 in
Visibility 8.0 miles
Clouds Scattered Clouds 800 ft
Overcast 2200 ft
Windchill 33 °F
Dew Point 32 °F
Humidity 94%
Rainfall 0.04 in
Snow Depth Not available.
6:09 AM 8:14 PM
New Moon, 2% visible
METAR KFCM 271353Z 32011G19KT 8SM SCT008 OVC022 01/M02 A2953 RMK AO2 SNB14E24 SLP009 P0000 T00061017
Pressure 29.56 in
Visibility 8.0 miles
Clouds Scattered Clouds 800 ft
Overcast 2200 ft
Windchill 33 °F
Dew Point 32 °F
Humidity 94%
Rainfall 0.04 in
Snow Depth Not available.
6:09 AM 8:14 PM
New Moon, 2% visible
METAR KFCM 271353Z 32011G19KT 8SM SCT008 OVC022 01/M02 A2953 RMK AO2 SNB14E24 SLP009 P0000 T00061017

Get Severe Weather Alerts

Thanks for signing up!

Be on the lookout for a verification email in your inbox.

You'll start receiving the daily forecast at 8 AM.

×

10-Day Weather Forecast

Almanac

Astronomy

Apr. 27, 2017 Rise Set
Actual Time
Civil Twilight
Nautical Twilight
Astronomical Twilight
Moon
Length of Visible Light
Length of Day
Tomorrow will be .
, % of the Moon is Illuminated

Today's Extremes

State Highs State Lows

Community

WunderPhotos

WunderBlog® & News

Nearby

Air Quality

  Air Quality AQ Index Pollutant
Not available.

Snow Depth

Station Depth Elevation

Earthquake Activity

City Distance Mag. Time & Date
Minimum magnitude displayed is 2.5.

Coastal Water Temperatures

Place Temperature

Stations

Nearby Weather Stations

Station Location Temp. Windchill Dew Point Humidity Wind Precip. Elev Updated Type
                   

Watches & Warnings

There are currently no watches in effect.